createdAt,value
2023-04-25T00:02:10.322Z,4.03
2023-04-25T00:06:13.172Z,3.07
2023-04-25T00:10:15.711Z,6.33
2023-04-25T00:14:17.952Z,4.10
2023-04-25T00:18:21.545Z,3.80
2023-04-25T00:22:23.658Z,2.90
2023-04-25T00:26:26.176Z,2.67
2023-04-25T00:30:28.393Z,3.00
2023-04-25T00:34:30.457Z,3.53
2023-04-25T00:38:32.648Z,2.77
2023-04-25T00:42:37.073Z,4.63
2023-04-25T00:46:40.847Z,3.53
2023-04-25T00:50:43.652Z,3.07
2023-04-25T00:54:45.868Z,4.07
2023-04-25T00:58:48.795Z,3.50
2023-04-25T01:02:51.568Z,2.23
2023-04-25T01:06:54.159Z,2.57
2023-04-25T01:10:56.276Z,2.70
2023-04-25T01:14:58.535Z,3.20
2023-04-25T01:19:01.131Z,2.67
2023-04-25T01:23:04.159Z,2.93
2023-04-25T01:27:07.260Z,3.33
2023-04-25T01:31:10.311Z,3.60
2023-04-25T01:35:13.336Z,3.53
2023-04-25T01:39:16.256Z,3.00
2023-04-25T01:43:18.323Z,2.80
2023-04-25T01:47:21.263Z,2.97
2023-04-25T01:51:23.403Z,3.10
2023-04-25T01:55:25.794Z,3.00
2023-04-25T01:59:42.925Z,4.00
2023-04-25T02:03:53.156Z,2.93
2023-04-25T02:08:10.762Z,2.93
2023-04-25T02:12:13.295Z,3.17
2023-04-25T02:16:36.232Z,2.90
2023-04-25T02:20:38.686Z,3.53
2023-04-25T02:24:40.769Z,2.80
2023-04-25T02:28:42.795Z,3.10
2023-04-25T02:32:44.957Z,2.87
2023-04-25T02:36:46.890Z,2.77
2023-04-25T02:40:48.793Z,3.20
2023-04-25T02:44:50.845Z,3.20
2023-04-25T02:48:52.843Z,2.87
2023-04-25T02:52:54.902Z,3.10
2023-04-25T02:57:03.883Z,3.10
2023-04-25T03:01:11.260Z,3.03
2023-04-25T03:05:13.364Z,3.47
2023-04-25T03:09:15.515Z,3.30
2023-04-25T03:13:17.691Z,3.30
2023-04-25T03:17:19.695Z,2.93
2023-04-25T03:21:21.757Z,3.13
2023-04-25T03:25:23.655Z,3.87
2023-04-25T03:29:27.412Z,3.00
2023-04-25T03:33:30.922Z,3.30
2023-04-25T03:37:33.312Z,3.57
2023-04-25T03:41:35.394Z,3.50
2023-04-25T03:45:41.928Z,3.07
2023-04-25T03:49:44.102Z,3.53
2023-04-25T03:53:46.432Z,3.23
2023-04-25T03:57:51.340Z,5.13
2023-04-25T04:01:53.747Z,4.00
2023-04-25T04:05:55.899Z,3.90
2023-04-25T04:09:57.915Z,4.77
2023-04-25T04:14:11.741Z,4.37
2023-04-25T04:18:17.808Z,4.00
2023-04-25T04:22:19.944Z,4.10
2023-04-25T04:26:24.469Z,5.13
2023-04-25T04:30:43.399Z,5.07
2023-04-25T04:34:45.742Z,5.83
2023-04-25T04:38:50.682Z,4.17
2023-04-25T04:43:01.541Z,3.47
2023-04-25T04:47:24.709Z,3.80
2023-04-25T04:51:39.772Z,31.43
2023-04-25T04:55:56.328Z,4.73
2023-04-25T05:00:24.090Z,3.63
2023-04-25T05:04:52.815Z,4.27
2023-04-25T05:09:02.668Z,5.57
2023-04-25T05:13:27.446Z,4.40
2023-04-25T05:17:44.548Z,3.60
2023-04-25T05:21:59.858Z,4.33
2023-04-25T05:26:20.025Z,3.70
2023-04-25T05:30:35.449Z,3.07
2023-04-25T05:35:00.716Z,3.50
2023-04-25T05:39:07.502Z,4.90
2023-04-25T05:43:28.041Z,4.57
2023-04-25T05:47:37.835Z,4.03
2023-04-25T05:51:54.370Z,4.03
2023-04-25T05:56:09.741Z,2.97
2023-04-25T06:00:14.148Z,4.03
2023-04-25T06:04:16.649Z,3.53
2023-04-25T06:08:19.006Z,4.80
2023-04-25T06:12:21.283Z,3.83
2023-04-25T06:16:26.949Z,3.57
2023-04-25T06:20:29.683Z,4.37
2023-04-25T06:24:35.124Z,4.00
2023-04-25T06:28:39.375Z,4.00
2023-04-25T06:32:41.964Z,4.07
2023-04-25T06:36:45.543Z,3.90
2023-04-25T06:40:50.685Z,3.30
2023-04-25T06:44:53.831Z,3.10
2023-04-25T06:48:56.648Z,2.87
2023-04-25T06:52:58.806Z,3.50
2023-04-25T06:57:01.948Z,3.70
2023-04-25T07:01:04.819Z,3.40
2023-04-25T07:05:08.090Z,2.73
2023-04-25T07:09:11.169Z,2.70
2023-04-25T07:13:13.900Z,3.00
2023-04-25T07:17:16.448Z,3.00
2023-04-25T07:21:19.161Z,2.90
2023-04-25T07:25:23.148Z,2.40
2023-04-25T07:29:26.224Z,2.80
2023-04-25T07:33:28.844Z,3.27
2023-04-25T07:37:30.853Z,3.13
2023-04-25T07:41:41.418Z,3.30
2023-04-25T07:45:48.041Z,2.80
2023-04-25T07:49:52.025Z,3.23
2023-04-25T07:53:54.242Z,2.90
2023-04-25T07:57:57.560Z,2.50
2023-04-25T08:02:00.019Z,2.60
2023-04-25T08:06:04.845Z,2.37
2023-04-25T08:10:14.815Z,2.70
2023-04-25T08:14:18.405Z,2.80
2023-04-25T08:18:21.480Z,3.03
2023-04-25T08:22:25.270Z,2.50
2023-04-25T08:26:38.287Z,2.50
2023-04-25T08:30:41.683Z,2.63
2023-04-25T08:34:47.827Z,2.80
2023-04-25T08:38:51.168Z,2.93
2023-04-25T08:42:56.622Z,2.90
2023-04-25T08:46:59.193Z,3.07
2023-04-25T08:55:17.141Z,3.00
2023-04-25T08:59:19.951Z,3.10
2023-04-25T09:03:22.967Z,2.60
2023-04-25T09:07:26.819Z,2.80
2023-04-25T09:11:30.829Z,2.57
2023-04-25T09:15:34.070Z,2.90
2023-04-25T09:19:46.821Z,2.83
2023-04-25T09:23:56.679Z,2.60
2023-04-25T09:28:00.209Z,3.13
2023-04-25T09:32:20.634Z,2.90
2023-04-25T09:36:28.163Z,2.90
2023-04-25T09:40:57.921Z,3.40
2023-04-25T09:45:16.126Z,3.07
2023-04-25T09:49:21.257Z,3.70
2023-04-25T09:53:37.266Z,3.20
2023-04-25T09:58:06.214Z,2.93
2023-04-25T10:02:10.480Z,2.90
2023-04-25T10:06:20.775Z,3.20
2023-04-25T10:10:29.617Z,2.47
2023-04-25T10:14:33.333Z,3.50
2023-04-25T10:18:35.534Z,4.00
2023-04-25T10:22:45.256Z,3.67
2023-04-25T10:26:48.954Z,3.00
2023-04-25T10:31:09.565Z,2.87
2023-04-25T10:35:20.450Z,3.20
2023-04-25T10:39:24.770Z,3.23
2023-04-25T10:43:33.398Z,3.60
2023-04-25T10:47:45.935Z,3.17
2023-04-25T10:51:55.418Z,2.47
2023-04-25T10:55:57.996Z,2.20
2023-04-25T11:00:14.625Z,2.40
2023-04-25T11:04:35.330Z,2.30
2023-04-25T11:08:51.435Z,3.40
2023-04-25T11:12:53.740Z,2.00
2023-04-25T11:17:00.869Z,2.07
2023-04-25T11:21:04.213Z,1.50
2023-04-25T11:25:07.910Z,1.40
2023-04-25T11:29:10.611Z,1.40
2023-04-25T11:33:12.739Z,1.30
2023-04-25T11:37:15.668Z,1.23
2023-04-25T11:41:17.721Z,1.30
2023-04-25T11:45:19.948Z,1.10
2023-04-25T11:49:23.053Z,1.23
2023-04-25T11:53:25.918Z,1.20
2023-04-25T11:57:28.093Z,1.20
2023-04-25T12:01:36.079Z,1.70
2023-04-25T12:05:38.982Z,2.10
2023-04-25T12:09:42.550Z,3.40
2023-04-25T12:13:45.328Z,3.10
2023-04-25T12:17:49.646Z,3.90
2023-04-25T12:25:57.471Z,4.33
2023-04-25T12:29:59.702Z,2.10
2023-04-25T12:34:02.104Z,1.70
2023-04-25T12:38:03.948Z,1.50
2023-04-25T12:42:07.953Z,1.27
2023-04-25T12:46:11.502Z,1.20
2023-04-25T12:50:13.925Z,0.83
2023-04-25T12:54:15.957Z,1.00
2023-04-25T12:58:19.621Z,1.40
2023-04-25T13:02:21.819Z,1.37
2023-04-25T13:06:24.183Z,1.50
2023-04-25T13:10:26.119Z,1.93
2023-04-25T13:14:28.239Z,2.20
2023-04-25T13:18:31.362Z,2.77
2023-04-25T13:22:33.375Z,2.53
2023-04-25T13:26:35.690Z,2.43
2023-04-25T13:30:38.024Z,2.67
2023-04-25T13:34:40.445Z,2.10
2023-04-25T13:38:45.020Z,2.50
2023-04-25T13:42:47.248Z,2.10
2023-04-25T13:46:49.182Z,2.00
2023-04-25T13:50:51.690Z,2.30
2023-04-25T13:54:53.941Z,2.83
2023-04-25T13:58:56.038Z,3.03
2023-04-25T14:02:58.276Z,3.10
2023-04-25T14:07:00.738Z,2.93
2023-04-25T14:11:02.671Z,3.03
2023-04-25T14:15:05.043Z,3.30
2023-04-25T14:19:07.206Z,3.10
2023-04-25T14:23:09.636Z,3.53
2023-04-25T14:27:12.851Z,2.97
2023-04-25T14:31:14.931Z,2.90
2023-04-25T14:35:17.031Z,3.43
2023-04-25T14:39:19.606Z,3.00
2023-04-25T14:43:21.630Z,7.20
2023-04-25T14:47:23.674Z,2.83
2023-04-25T14:51:26.638Z,3.13
2023-04-25T14:55:28.862Z,2.50
2023-04-25T14:59:30.925Z,2.80
2023-04-25T15:07:49.602Z,2.70
2023-04-25T15:11:52.295Z,3.20
2023-04-25T15:15:55.311Z,3.00
2023-04-25T15:19:57.703Z,3.10
2023-04-25T15:24:01.992Z,2.80
2023-04-25T15:28:04.275Z,3.50
2023-04-25T15:32:06.477Z,3.67
2023-04-25T15:36:09.230Z,3.30
2023-04-25T15:40:13.592Z,3.50
2023-04-25T15:44:15.813Z,3.87
2023-04-25T15:48:17.750Z,5.00
2023-04-25T15:52:21.919Z,5.27
2023-04-25T15:56:24.231Z,7.87
2023-04-25T16:00:26.187Z,4.90
2023-04-25T16:04:35.344Z,2.07
2023-04-25T16:08:37.557Z,1.70
2023-04-25T16:12:40.959Z,2.23
2023-04-25T16:16:44.948Z,3.00
2023-04-25T16:20:47.041Z,2.47
2023-04-25T16:24:49.334Z,2.77
2023-04-25T16:28:51.503Z,2.83
2023-04-25T16:32:53.799Z,3.30
2023-04-25T16:36:56.868Z,3.33
2023-04-25T16:40:58.726Z,3.73
2023-04-25T16:45:00.776Z,3.40
2023-04-25T16:49:02.902Z,3.60
2023-04-25T16:53:05.132Z,3.27
2023-04-25T16:57:10.462Z,3.53
2023-04-25T17:01:16.185Z,3.63
2023-04-25T17:05:18.315Z,3.43
2023-04-25T17:09:20.342Z,4.37
2023-04-25T17:13:22.233Z,3.70
2023-04-25T17:17:32.999Z,3.83
2023-04-25T17:21:35.059Z,5.47
2023-04-25T17:25:37.221Z,3.97
2023-04-25T17:29:39.244Z,5.00
2023-04-25T17:33:41.447Z,6.40
2023-04-25T17:37:44.036Z,6.80
2023-04-25T17:41:46.310Z,5.67
2023-04-25T17:45:48.335Z,5.43
2023-04-25T17:49:51.515Z,4.50
2023-04-25T17:53:53.655Z,6.13
2023-04-25T17:57:56.239Z,4.70
2023-04-25T18:02:00.054Z,6.73
2023-04-25T18:06:02.252Z,4.97
2023-04-25T18:10:05.898Z,4.63
2023-04-25T18:14:14.140Z,5.33
2023-04-25T18:18:20.293Z,4.30
2023-04-25T18:22:22.678Z,6.97
2023-04-25T18:26:24.745Z,4.77
2023-04-25T18:30:27.130Z,4.83
2023-04-25T18:34:29.242Z,4.83
2023-04-25T18:38:36.053Z,4.83
2023-04-25T18:42:38.416Z,6.17
2023-04-25T18:46:43.519Z,5.60
2023-04-25T18:50:45.618Z,5.50
2023-04-25T18:54:48.148Z,4.57
2023-04-25T18:58:53.990Z,5.30
2023-04-25T19:02:58.088Z,4.70
2023-04-25T19:07:00.610Z,5.10
2023-04-25T19:11:14.207Z,5.00
2023-04-25T19:15:22.714Z,4.87
2023-04-25T19:19:24.688Z,4.17
2023-04-25T19:23:26.785Z,4.10
2023-04-25T19:27:29.074Z,5.17
2023-04-25T19:31:31.652Z,21.00
2023-04-25T19:35:34.060Z,6.80
2023-04-25T19:39:36.205Z,6.10
2023-04-25T19:43:38.076Z,6.70
2023-04-25T19:47:40.865Z,6.37
2023-04-25T19:51:43.411Z,6.27
2023-04-25T19:55:45.552Z,6.70
2023-04-25T19:59:48.305Z,7.37
2023-04-25T20:03:51.729Z,7.73
2023-04-25T20:07:54.141Z,7.90
2023-04-25T20:11:56.369Z,9.10
2023-04-25T20:16:00.557Z,9.10
2023-04-25T20:20:06.470Z,8.67
2023-04-25T20:24:08.605Z,9.73
2023-04-25T20:28:10.843Z,9.60
2023-04-25T20:32:13.115Z,9.40
2023-04-25T20:36:15.632Z,10.43
2023-04-25T20:40:17.614Z,11.97
2023-04-25T20:44:22.756Z,10.17
2023-04-25T20:48:24.955Z,8.17
2023-04-25T20:52:27.119Z,8.43
2023-04-25T20:56:29.424Z,7.87
2023-04-25T21:00:31.417Z,8.57
2023-04-25T21:04:33.425Z,9.50
2023-04-25T21:08:35.547Z,7.47
2023-04-25T21:12:37.790Z,7.77
2023-04-25T21:16:40.900Z,8.67
2023-04-25T21:20:43.058Z,8.60
2023-04-25T21:24:47.663Z,8.97
2023-04-25T21:28:50.136Z,10.00
2023-04-25T21:32:53.326Z,8.40
2023-04-25T21:36:56.089Z,8.50
2023-04-25T21:40:58.539Z,7.27
2023-04-25T21:45:02.519Z,7.33
2023-04-25T21:49:04.459Z,7.33
2023-04-25T21:53:07.179Z,6.93
2023-04-25T21:57:09.185Z,8.40
2023-04-25T22:01:11.490Z,8.10
2023-04-25T22:05:13.461Z,8.00
2023-04-25T22:09:17.863Z,8.03
2023-04-25T22:13:20.277Z,8.03
2023-04-25T22:17:25.859Z,7.67
2023-04-25T22:21:28.166Z,7.80
2023-04-25T22:25:31.754Z,9.33
2023-04-25T22:29:34.262Z,9.53
2023-04-25T22:33:36.530Z,7.57
2023-04-25T22:37:38.669Z,7.60
2023-04-25T22:41:40.830Z,7.40
2023-04-25T22:45:42.939Z,8.00
2023-04-25T22:49:45.589Z,7.67
2023-04-25T22:53:47.696Z,8.70
2023-04-25T22:57:49.548Z,8.67
2023-04-25T23:01:51.852Z,9.00
2023-04-25T23:05:54.048Z,9.43
2023-04-25T23:09:56.076Z,9.70
2023-04-25T23:13:58.934Z,10.80
2023-04-25T23:18:02.275Z,14.53
2023-04-25T23:22:05.901Z,11.03
2023-04-25T23:26:10.292Z,10.63
2023-04-25T23:30:12.719Z,10.30
2023-04-25T23:34:14.786Z,10.33
2023-04-25T23:38:17.237Z,10.27
2023-04-25T23:42:19.270Z,8.73
2023-04-25T23:46:22.154Z,9.70
2023-04-25T23:50:24.369Z,10.20
2023-04-25T23:54:26.852Z,12.30
2023-04-25T23:58:28.935Z,11.77
